sensor_id;sensor_type;location;lat;lon;timestamp;temperature;humidity
18281;DHT22;9266;51.132;17.062;2023-08-01T00:00:57;20.10;1.00
18281;DHT22;9266;51.132;17.062;2023-08-01T00:03:24;20.10;1.00
18281;DHT22;9266;51.132;17.062;2023-08-01T00:05:51;20.10;1.00
18281;DHT22;9266;51.132;17.062;2023-08-01T00:08:21;20.10;20.10
18281;DHT22;9266;51.132;17.062;2023-08-01T00:10:48;20.10;8.30
18281;DHT22;9266;51.132;17.062;2023-08-01T00:13:15;20.10;10.40
18281;DHT22;9266;51.132;17.062;2023-08-01T00:15:42;20.00;54.80
18281;DHT22;9266;51.132;17.062;2023-08-01T00:18:09;20.00;1.00
18281;DHT22;9266;51.132;17.062;2023-08-01T00:20:36;20.00;8.90
18281;DHT22;9266;51.132;17.062;2023-08-01T00:23:05;20.00;1.00
18281;DHT22;9266;51.132;17.062;2023-08-01T00:25:33;20.00;1.00
18281;DHT22;9266;51.132;17.062;2023-08-01T00:28:00;20.00;1.00
18281;DHT22;9266;51.132;17.062;2023-08-01T00:30:27;19.90;1.50
18281;DHT22;9266;51.132;17.062;2023-08-01T00:32:54;19.90;73.10
18281;DHT22;9266;51.132;17.062;2023-08-01T00:35:21;19.90;51.60
18281;DHT22;9266;51.132;17.062;2023-08-01T00:37:48;19.80;99.70
18281;DHT22;9266;51.132;17.062;2023-08-01T00:40:15;19.80;99.90
18281;DHT22;9266;51.132;17.062;2023-08-01T00:42:44;19.70;99.90
18281;DHT22;9266;51.132;17.062;2023-08-01T00:45:11;19.70;99.90
18281;DHT22;9266;51.132;17.062;2023-08-01T00:47:38;19.70;99.90
18281;DHT22;9266;51.132;17.062;2023-08-01T00:50:06;19.70;99.90
18281;DHT22;9266;51.132;17.062;2023-08-01T00:52:33;19.60;99.90
18281;DHT22;9266;51.132;17.062;2023-08-01T00:55:00;19.60;99.90
18281;DHT22;9266;51.132;17.062;2023-08-01T00:57:27;19.50;99.90
18281;DHT22;9266;51.132;17.062;2023-08-01T00:59:56;19.50;1.00
18281;DHT22;9266;51.132;17.062;2023-08-01T01:02:23;19.50;1.00
18281;DHT22;9266;51.132;17.062;2023-08-01T01:04:50;19.40;1.00
18281;DHT22;9266;51.132;17.062;2023-08-01T01:07:17;19.30;1.00
18281;DHT22;9266;51.132;17.062;2023-08-01T01:09:45;19.30;1.00
18281;DHT22;9266;51.132;17.062;2023-08-01T01:12:12;19.30;1.00
18281;DHT22;9266;51.132;17.062;2023-08-01T01:14:39;19.30;1.00
18281;DHT22;9266;51.132;17.062;2023-08-01T01:17:07;19.30;1.00
18281;DHT22;9266;51.132;17.062;2023-08-01T01:19:34;19.30;1.00
18281;DHT22;9266;51.132;17.062;2023-08-01T01:22:04;19.10;35.00
18281;DHT22;9266;51.132;17.062;2023-08-01T01:24:31;19.10;99.90
18281;DHT22;9266;51.132;17.062;2023-08-01T01:27:00;19.10;99.90
18281;DHT22;9266;51.132;17.062;2023-08-01T01:29:29;18.90;99.90
18281;DHT22;9266;51.132;17.062;2023-08-01T01:31:57;18.90;99.90
18281;DHT22;9266;51.132;17.062;2023-08-01T01:34:26;18.80;1.00
18281;DHT22;9266;51.132;17.062;2023-08-01T01:36:54;18.60;1.00
18281;DHT22;9266;51.132;17.062;2023-08-01T01:39:22;18.60;1.00
18281;DHT22;9266;51.132;17.062;2023-08-01T01:41:49;18.60;1.00
18281;DHT22;9266;51.132;17.062;2023-08-01T01:44:16;18.50;1.00
18281;DHT22;9266;51.132;17.062;2023-08-01T01:46:43;18.50;86.20
18281;DHT22;9266;51.132;17.062;2023-08-01T01:49:10;18.50;86.30
18281;DHT22;9266;51.132;17.062;2023-08-01T01:51:37;18.50;2.90
18281;DHT22;9266;51.132;17.062;2023-08-01T01:54:04;18.50;1.00
18281;DHT22;9266;51.132;17.062;2023-08-01T01:56:32;18.50;1.00
18281;DHT22;9266;51.132;17.062;2023-08-01T01:59:01;18.50;1.00
18281;DHT22;9266;51.132;17.062;2023-08-01T02:01:28;18.50;1.00
18281;DHT22;9266;51.132;17.062;2023-08-01T02:03:55;18.50;1.00
18281;DHT22;9266;51.132;17.062;2023-08-01T02:06:22;18.60;1.00
18281;DHT22;9266;51.132;17.062;2023-08-01T02:08:49;18.60;1.00
18281;DHT22;9266;51.132;17.062;2023-08-01T02:11:16;18.60;1.00
18281;DHT22;9266;51.132;17.062;2023-08-01T02:13:44;18.80;1.00
18281;DHT22;9266;51.132;17.062;2023-08-01T02:16:11;18.80;99.90
18281;DHT22;9266;51.132;17.062;2023-08-01T02:18:38;18.90;55.70
18281;DHT22;9266;51.132;17.062;2023-08-01T02:21:05;18.90;1.00
18281;DHT22;9266;51.132;17.062;2023-08-01T02:23:32;18.90;1.00
18281;DHT22;9266;51.132;17.062;2023-08-01T02:26:01;18.90;1.00
18281;DHT22;9266;51.132;17.062;2023-08-01T02:28:29;19.00;1.00
18281;DHT22;9266;51.132;17.062;2023-08-01T02:30:57;19.10;1.00
18281;DHT22;9266;51.132;17.062;2023-08-01T02:33:24;19.10;1.00
18281;DHT22;9266;51.132;17.062;2023-08-01T02:35:51;19.10;1.00
18281;DHT22;9266;51.132;17.062;2023-08-01T02:38:18;19.10;1.00
18281;DHT22;9266;51.132;17.062;2023-08-01T02:40:45;19.10;1.00
18281;DHT22;9266;51.132;17.062;2023-08-01T02:43:11;19.10;1.00
18281;DHT22;9266;51.132;17.062;2023-08-01T02:45:38;19.10;1.00
18281;DHT22;9266;51.132;17.062;2023-08-01T02:48:07;19.10;1.00
18281;DHT22;9266;51.132;17.062;2023-08-01T02:50:34;19.20;1.00
18281;DHT22;9266;51.132;17.062;2023-08-01T02:53:00;19.10;1.00
18281;DHT22;9266;51.132;17.062;2023-08-01T02:55:27;19.20;1.00
18281;DHT22;9266;51.132;17.062;2023-08-01T02:57:54;19.10;1.00
18281;DHT22;9266;51.132;17.062;2023-08-01T03:00:21;19.00;36.50
18281;DHT22;9266;51.132;17.062;2023-08-01T03:02:48;18.90;99.90
18281;DHT22;9266;51.132;17.062;2023-08-01T03:05:17;18.80;1.00
18281;DHT22;9266;51.132;17.062;2023-08-01T03:07:44;18.70;99.90
18281;DHT22;9266;51.132;17.062;2023-08-01T03:10:11;18.60;1.00
18281;DHT22;9266;51.132;17.062;2023-08-01T03:12:38;18.50;1.00
18281;DHT22;9266;51.132;17.062;2023-08-01T03:15:06;18.50;99.90
18281;DHT22;9266;51.132;17.062;2023-08-01T03:17:34;18.50;99.90
18281;DHT22;9266;51.132;17.062;2023-08-01T03:20:01;18.50;99.90
18281;DHT22;9266;51.132;17.062;2023-08-01T03:22:29;18.50;1.00
18281;DHT22;9266;51.132;17.062;2023-08-01T03:24:56;18.50;1.00
18281;DHT22;9266;51.132;17.062;2023-08-01T03:27:23;18.50;1.00
18281;DHT22;9266;51.132;17.062;2023-08-01T03:29:50;18.60;99.90
18281;DHT22;9266;51.132;17.062;2023-08-01T03:32:17;18.60;99.90
18281;DHT22;9266;51.132;17.062;2023-08-01T03:34:44;18.70;1.00
18281;DHT22;9266;51.132;17.062;2023-08-01T03:37:11;18.70;1.00
18281;DHT22;9266;51.132;17.062;2023-08-01T03:39:40;18.80;1.00
18281;DHT22;9266;51.132;17.062;2023-08-01T03:42:07;18.90;1.00
18281;DHT22;9266;51.132;17.062;2023-08-01T03:44:34;18.90;1.00
18281;DHT22;9266;51.132;17.062;2023-08-01T03:47:02;18.90;1.00
18281;DHT22;9266;51.132;17.062;2023-08-01T03:49:28;19.00;1.00
18281;DHT22;9266;51.132;17.062;2023-08-01T03:51:55;19.00;1.00
18281;DHT22;9266;51.132;17.062;2023-08-01T03:54:22;19.00;1.00
18281;DHT22;9266;51.132;17.062;2023-08-01T03:56:51;18.90;35.50
18281;DHT22;9266;51.132;17.062;2023-08-01T03:59:18;18.80;58.20
18281;DHT22;9266;51.132;17.062;2023-08-01T04:01:45;18.80;99.90
18281;DHT22;9266;51.132;17.062;2023-08-01T04:04:12;18.80;1.00
18281;DHT22;9266;51.132;17.062;2023-08-01T04:06:39;18.70;99.90
18281;DHT22;9266;51.132;17.062;2023-08-01T04:09:06;18.80;99.90
18281;DHT22;9266;51.132;17.062;2023-08-01T04:11:33;18.70;99.90
18281;DHT22;9266;51.132;17.062;2023-08-01T04:14:01;18.70;99.90
18281;DHT22;9266;51.132;17.062;2023-08-01T04:16:28;18.70;99.90
18281;DHT22;9266;51.132;17.062;2023-08-01T04:18:55;18.80;1.00
18281;DHT22;9266;51.132;17.062;2023-08-01T04:21:22;18.80;77.00
18281;DHT22;9266;51.132;17.062;2023-08-01T04:23:49;18.70;1.00
18281;DHT22;9266;51.132;17.062;2023-08-01T04:26:16;18.60;1.00
18281;DHT22;9266;51.132;17.062;2023-08-01T04:28:43;18.60;1.00
18281;DHT22;9266;51.132;17.062;2023-08-01T04:31:11;18.60;99.90
18281;DHT22;9266;51.132;17.062;2023-08-01T04:33:38;18.50;99.90
18281;DHT22;9266;51.132;17.062;2023-08-01T04:36:05;18.40;1.00
18281;DHT22;9266;51.132;17.062;2023-08-01T04:38:32;18.30;1.00
18281;DHT22;9266;51.132;17.062;2023-08-01T04:40:59;18.30;1.00
18281;DHT22;9266;51.132;17.062;2023-08-01T04:43:28;18.20;93.90
18281;DHT22;9266;51.132;17.062;2023-08-01T04:45:55;18.10;3.20
18281;DHT22;9266;51.132;17.062;2023-08-01T04:48:23;18.10;1.00
18281;DHT22;9266;51.132;17.062;2023-08-01T04:50:50;18.00;1.00
18281;DHT22;9266;51.132;17.062;2023-08-01T04:53:17;18.00;99.90
18281;DHT22;9266;51.132;17.062;2023-08-01T04:55:44;17.90;1.00
18281;DHT22;9266;51.132;17.062;2023-08-01T04:58:11;17.90;1.00
18281;DHT22;9266;51.132;17.062;2023-08-01T05:00:40;17.90;99.90
18281;DHT22;9266;51.132;17.062;2023-08-01T05:03:07;17.90;99.90
18281;DHT22;9266;51.132;17.062;2023-08-01T05:05:35;17.90;1.00
18281;DHT22;9266;51.132;17.062;2023-08-01T05:08:02;17.80;99.90
18281;DHT22;9266;51.132;17.062;2023-08-01T05:10:29;17.90;99.90
18281;DHT22;9266;51.132;17.062;2023-08-01T05:12:56;17.90;1.00
18281;DHT22;9266;51.132;17.062;2023-08-01T05:15:23;17.90;99.90
18281;DHT22;9266;51.132;17.062;2023-08-01T05:17:50;18.00;1.00
18281;DHT22;9266;51.132;17.062;2023-08-01T05:20:17;17.90;1.00
18281;DHT22;9266;51.132;17.062;2023-08-01T05:22:45;17.90;1.00
18281;DHT22;9266;51.132;17.062;2023-08-01T05:25:12;18.00;99.90
18281;DHT22;9266;51.132;17.062;2023-08-01T05:27:39;17.90;1.00
18281;DHT22;9266;51.132;17.062;2023-08-01T05:30:07;17.90;28.90
18281;DHT22;9266;51.132;17.062;2023-08-01T05:32:34;17.80;99.90
18281;DHT22;9266;51.132;17.062;2023-08-01T05:35:01;17.80;1.00
18281;DHT22;9266;51.132;17.062;2023-08-01T05:37:28;17.70;99.90
18281;DHT22;9266;51.132;17.062;2023-08-01T05:39:56;17.60;1.00
18281;DHT22;9266;51.132;17.062;2023-08-01T05:42:23;17.60;1.00
18281;DHT22;9266;51.132;17.062;2023-08-01T05:44:50;17.60;1.00
18281;DHT22;9266;51.132;17.062;2023-08-01T05:47:17;17.60;99.90
18281;DHT22;9266;51.132;17.062;2023-08-01T05:49:44;17.60;99.90
18281;DHT22;9266;51.132;17.062;2023-08-01T05:52:11;17.60;1.00
18281;DHT22;9266;51.132;17.062;2023-08-01T05:54:38;17.60;1.00
18281;DHT22;9266;51.132;17.062;2023-08-01T05:57:07;17.60;1.00
18281;DHT22;9266;51.132;17.062;2023-08-01T05:59:34;17.60;1.00
18281;DHT22;9266;51.132;17.062;2023-08-01T06:02:01;17.50;1.00
18281;DHT22;9266;51.132;17.062;2023-08-01T06:04:28;17.50;1.00
18281;DHT22;9266;51.132;17.062;2023-08-01T06:06:55;17.60;99.90
18281;DHT22;9266;51.132;17.062;2023-08-01T06:09:22;17.60;99.90
18281;DHT22;9266;51.132;17.062;2023-08-01T06:11:49;17.60;99.90
18281;DHT22;9266;51.132;17.062;2023-08-01T06:14:18;17.60;99.90
18281;DHT22;9266;51.132;17.062;2023-08-01T06:16:45;17.70;99.90
18281;DHT22;9266;51.132;17.062;2023-08-01T06:19:12;17.70;99.90
18281;DHT22;9266;51.132;17.062;2023-08-01T06:21:39;17.70;99.90
18281;DHT22;9266;51.132;17.062;2023-08-01T06:24:05;17.70;99.90
18281;DHT22;9266;51.132;17.062;2023-08-01T06:26:34;17.80;99.90
18281;DHT22;9266;51.132;17.062;2023-08-01T06:29:01;17.80;99.90
18281;DHT22;9266;51.132;17.062;2023-08-01T06:31:29;17.80;99.90
18281;DHT22;9266;51.132;17.062;2023-08-01T06:33:56;17.90;99.90
18281;DHT22;9266;51.132;17.062;2023-08-01T06:36:23;17.90;99.90
18281;DHT22;9266;51.132;17.062;2023-08-01T06:38:50;18.00;99.90
18281;DHT22;9266;51.132;17.062;2023-08-01T06:41:17;18.00;87.70
18281;DHT22;9266;51.132;17.062;2023-08-01T06:43:44;18.00;54.90
18281;DHT22;9266;51.132;17.062;2023-08-01T06:46:11;18.00;25.20
18281;DHT22;9266;51.132;17.062;2023-08-01T06:48:40;18.00;28.40
18281;DHT22;9266;51.132;17.062;2023-08-01T06:51:06;17.90;47.30
18281;DHT22;9266;51.132;17.062;2023-08-01T06:53:33;17.90;64.10
18281;DHT22;9266;51.132;17.062;2023-08-01T06:56:00;17.90;55.10
18281;DHT22;9266;51.132;17.062;2023-08-01T06:58:27;17.90;99.90
18281;DHT22;9266;51.132;17.062;2023-08-01T07:00:54;17.80;99.90
18281;DHT22;9266;51.132;17.062;2023-08-01T07:03:21;17.80;99.90
18281;DHT22;9266;51.132;17.062;2023-08-01T07:05:50;17.80;99.90
18281;DHT22;9266;51.132;17.062;2023-08-01T07:08:17;17.80;99.90
18281;DHT22;9266;51.132;17.062;2023-08-01T07:10:45;17.90;99.90
18281;DHT22;9266;51.132;17.062;2023-08-01T07:13:12;17.90;99.90
18281;DHT22;9266;51.132;17.062;2023-08-01T07:15:40;16.40;99.90
18281;DHT22;9266;51.132;17.062;2023-08-01T07:18:07;17.90;99.90
18281;DHT22;9266;51.132;17.062;2023-08-01T07:20:34;18.00;99.90
18281;DHT22;9266;51.132;17.062;2023-08-01T07:23:02;18.10;99.90
18281;DHT22;9266;51.132;17.062;2023-08-01T07:25:29;18.00;99.90
18281;DHT22;9266;51.132;17.062;2023-08-01T07:27:56;18.10;99.90
18281;DHT22;9266;51.132;17.062;2023-08-01T07:30:23;18.00;99.90
18281;DHT22;9266;51.132;17.062;2023-08-01T07:32:50;18.00;99.90
18281;DHT22;9266;51.132;17.062;2023-08-01T07:35:17;18.10;99.90
18281;DHT22;9266;51.132;17.062;2023-08-01T07:37:44;18.10;99.90
18281;DHT22;9266;51.132;17.062;2023-08-01T07:40:12;18.20;99.90
18281;DHT22;9266;51.132;17.062;2023-08-01T07:42:39;18.30;99.90
18281;DHT22;9266;51.132;17.062;2023-08-01T07:45:07;18.30;99.90
18281;DHT22;9266;51.132;17.062;2023-08-01T07:47:34;18.40;99.90
18281;DHT22;9266;51.132;17.062;2023-08-01T07:50:01;18.70;99.90
18281;DHT22;9266;51.132;17.062;2023-08-01T07:52:28;18.90;66.90
18281;DHT22;9266;51.132;17.062;2023-08-01T07:54:54;19.10;1.00
18281;DHT22;9266;51.132;17.062;2023-08-01T07:57:25;19.20;1.00
18281;DHT22;9266;51.132;17.062;2023-08-01T07:59:52;19.40;99.90
18281;DHT22;9266;51.132;17.062;2023-08-01T08:02:20;20.30;1.00
18281;DHT22;9266;51.132;17.062;2023-08-01T08:04:47;19.90;1.00
18281;DHT22;9266;51.132;17.062;2023-08-01T08:07:14;20.20;99.90
18281;DHT22;9266;51.132;17.062;2023-08-01T08:09:41;20.50;99.90
18281;DHT22;9266;51.132;17.062;2023-08-01T08:12:07;20.60;1.00
18281;DHT22;9266;51.132;17.062;2023-08-01T08:14:36;20.70;94.30
18281;DHT22;9266;51.132;17.062;2023-08-01T08:17:04;20.60;99.90
18281;DHT22;9266;51.132;17.062;2023-08-01T08:19:31;20.40;1.00
18281;DHT22;9266;51.132;17.062;2023-08-01T08:21:58;20.30;1.00
18281;DHT22;9266;51.132;17.062;2023-08-01T08:24:25;20.20;1.00
18281;DHT22;9266;51.132;17.062;2023-08-01T08:26:52;20.30;36.20
18281;DHT22;9266;51.132;17.062;2023-08-01T08:29:19;20.40;99.90
18281;DHT22;9266;51.132;17.062;2023-08-01T08:31:47;20.40;99.90
18281;DHT22;9266;51.132;17.062;2023-08-01T08:34:14;20.30;99.90
18281;DHT22;9266;51.132;17.062;2023-08-01T08:36:41;20.40;99.90
18281;DHT22;9266;51.132;17.062;2023-08-01T08:39:08;20.40;1.00
18281;DHT22;9266;51.132;17.062;2023-08-01T08:41:42;20.30;1.00
18281;DHT22;9266;51.132;17.062;2023-08-01T08:44:14;20.00;1.00
18281;DHT22;9266;51.132;17.062;2023-08-01T08:46:43;19.90;1.00
18281;DHT22;9266;51.132;17.062;2023-08-01T08:49:11;19.90;99.90
18281;DHT22;9266;51.132;17.062;2023-08-01T08:51:42;19.90;1.00
18281;DHT22;9266;51.132;17.062;2023-08-01T08:54:10;19.90;1.00
18281;DHT22;9266;51.132;17.062;2023-08-01T08:56:38;19.80;99.90
18281;DHT22;9266;51.132;17.062;2023-08-01T08:59:08;19.80;1.00
18281;DHT22;9266;51.132;17.062;2023-08-01T09:01:35;19.70;1.00
18281;DHT22;9266;51.132;17.062;2023-08-01T09:04:03;19.90;99.90
18281;DHT22;9266;51.132;17.062;2023-08-01T09:06:32;20.10;99.90
18281;DHT22;9266;51.132;17.062;2023-08-01T09:09:03;20.30;1.00
18281;DHT22;9266;51.132;17.062;2023-08-01T09:11:39;20.40;1.00
18281;DHT22;9266;51.132;17.062;2023-08-01T09:14:07;20.40;99.90
18281;DHT22;9266;51.132;17.062;2023-08-01T09:16:34;20.40;1.00
18281;DHT22;9266;51.132;17.062;2023-08-01T09:19:01;20.50;1.00
18281;DHT22;9266;51.132;17.062;2023-08-01T09:21:33;20.40;1.00
18281;DHT22;9266;51.132;17.062;2023-08-01T09:24:08;20.40;1.00
18281;DHT22;9266;51.132;17.062;2023-08-01T09:26:36;20.40;1.00
18281;DHT22;9266;51.132;17.062;2023-08-01T09:29:03;20.30;99.90
18281;DHT22;9266;51.132;17.062;2023-08-01T09:31:32;20.20;1.00
18281;DHT22;9266;51.132;17.062;2023-08-01T09:33:59;20.10;1.00
18281;DHT22;9266;51.132;17.062;2023-08-01T09:36:26;20.00;1.00
18281;DHT22;9266;51.132;17.062;2023-08-01T09:39:00;20.00;99.90
18281;DHT22;9266;51.132;17.062;2023-08-01T09:41:27;20.00;1.00
18281;DHT22;9266;51.132;17.062;2023-08-01T09:43:55;20.00;1.00
18281;DHT22;9266;51.132;17.062;2023-08-01T09:46:22;20.00;1.00
18281;DHT22;9266;51.132;17.062;2023-08-01T09:48:49;20.20;99.90
18281;DHT22;9266;51.132;17.062;2023-08-01T09:51:17;20.30;99.90
18281;DHT22;9266;51.132;17.062;2023-08-01T09:53:49;20.30;1.00
18281;DHT22;9266;51.132;17.062;2023-08-01T09:56:19;20.30;1.00
18281;DHT22;9266;51.132;17.062;2023-08-01T09:58:48;20.30;99.90
18281;DHT22;9266;51.132;17.062;2023-08-01T10:01:18;20.30;1.00
18281;DHT22;9266;51.132;17.062;2023-08-01T10:03:47;20.30;1.00
18281;DHT22;9266;51.132;17.062;2023-08-01T10:06:17;20.20;1.00
18281;DHT22;9266;51.132;17.062;2023-08-01T10:08:46;21.50;99.90
18281;DHT22;9266;51.132;17.062;2023-08-01T10:11:14;20.40;1.00
18281;DHT22;9266;51.132;17.062;2023-08-01T10:13:44;20.40;8.60
18281;DHT22;9266;51.132;17.062;2023-08-01T10:16:12;20.50;1.00
18281;DHT22;9266;51.132;17.062;2023-08-01T10:18:39;20.70;99.90
18281;DHT22;9266;51.132;17.062;2023-08-01T10:21:08;20.80;1.00
18281;DHT22;9266;51.132;17.062;2023-08-01T10:23:36;20.90;99.90
18281;DHT22;9266;51.132;17.062;2023-08-01T10:26:06;21.00;1.00
18281;DHT22;9266;51.132;17.062;2023-08-01T10:28:34;21.10;1.00
18281;DHT22;9266;51.132;17.062;2023-08-01T10:31:10;21.30;1.00
18281;DHT22;9266;51.132;17.062;2023-08-01T10:33:38;21.20;1.00
18281;DHT22;9266;51.132;17.062;2023-08-01T10:36:15;21.20;1.00
18281;DHT22;9266;51.132;17.062;2023-08-01T10:38:50;21.10;99.90
18281;DHT22;9266;51.132;17.062;2023-08-01T10:41:26;21.10;1.00
18281;DHT22;9266;51.132;17.062;2023-08-01T10:44:03;21.10;1.00
18281;DHT22;9266;51.132;17.062;2023-08-01T10:46:45;21.20;1.00
18281;DHT22;9266;51.132;17.062;2023-08-01T10:49:12;21.20;1.00
18281;DHT22;9266;51.132;17.062;2023-08-01T10:51:39;21.30;1.00
18281;DHT22;9266;51.132;17.062;2023-08-01T10:54:07;21.30;1.00
18281;DHT22;9266;51.132;17.062;2023-08-01T10:56:45;21.30;99.90
18281;DHT22;9266;51.132;17.062;2023-08-01T10:59:13;21.10;1.00
18281;DHT22;9266;51.132;17.062;2023-08-01T11:01:52;20.90;1.00
18281;DHT22;9266;51.132;17.062;2023-08-01T11:04:20;20.60;99.90
18281;DHT22;9266;51.132;17.062;2023-08-01T11:06:48;20.50;99.90
18281;DHT22;9266;51.132;17.062;2023-08-01T11:09:18;20.00;99.90
18281;DHT22;9266;51.132;17.062;2023-08-01T11:11:44;20.40;99.90
18281;DHT22;9266;51.132;17.062;2023-08-01T11:14:12;20.30;1.00
18281;DHT22;9266;51.132;17.062;2023-08-01T11:16:40;20.10;99.90
18281;DHT22;9266;51.132;17.062;2023-08-01T11:19:19;20.10;1.00
18281;DHT22;9266;51.132;17.062;2023-08-01T11:21:47;19.90;99.90
18281;DHT22;9266;51.132;17.062;2023-08-01T11:24:16;19.80;99.90
18281;DHT22;9266;51.132;17.062;2023-08-01T11:26:45;19.70;99.90
18281;DHT22;9266;51.132;17.062;2023-08-01T11:29:12;19.70;1.00
18281;DHT22;9266;51.132;17.062;2023-08-01T11:31:40;19.90;99.90
18281;DHT22;9266;51.132;17.062;2023-08-01T11:34:08;20.00;8.20
18281;DHT22;9266;51.132;17.062;2023-08-01T11:36:37;20.10;1.00
18281;DHT22;9266;51.132;17.062;2023-08-01T11:39:04;20.40;99.90
18281;DHT22;9266;51.132;17.062;2023-08-01T11:41:31;20.60;99.90
18281;DHT22;9266;51.132;17.062;2023-08-01T11:44:02;21.00;1.00
18281;DHT22;9266;51.132;17.062;2023-08-01T11:46:34;21.40;1.00
18281;DHT22;9266;51.132;17.062;2023-08-01T11:49:02;21.70;1.00
18281;DHT22;9266;51.132;17.062;2023-08-01T11:51:29;22.10;99.90
18281;DHT22;9266;51.132;17.062;2023-08-01T11:54:01;22.40;1.00
18281;DHT22;9266;51.132;17.062;2023-08-01T11:56:29;22.60;1.00
18281;DHT22;9266;51.132;17.062;2023-08-01T11:58:56;22.80;1.00
18281;DHT22;9266;51.132;17.062;2023-08-01T12:01:24;22.80;1.00
18281;DHT22;9266;51.132;17.062;2023-08-01T12:03:52;23.00;1.00
18281;DHT22;9266;51.132;17.062;2023-08-01T12:06:20;23.20;1.00
18281;DHT22;9266;51.132;17.062;2023-08-01T12:08:48;23.40;1.00
18281;DHT22;9266;51.132;17.062;2023-08-01T12:11:21;23.60;1.00
18281;DHT22;9266;51.132;17.062;2023-08-01T12:13:59;23.70;1.00
18281;DHT22;9266;51.132;17.062;2023-08-01T12:16:26;23.70;1.00
18281;DHT22;9266;51.132;17.062;2023-08-01T12:18:53;24.20;1.00
18281;DHT22;9266;51.132;17.062;2023-08-01T12:21:20;24.40;99.90
18281;DHT22;9266;51.132;17.062;2023-08-01T12:23:47;24.50;99.90
18281;DHT22;9266;51.132;17.062;2023-08-01T12:26:14;24.70;99.90
18281;DHT22;9266;51.132;17.062;2023-08-01T12:28:43;24.70;99.90
18281;DHT22;9266;51.132;17.062;2023-08-01T12:31:09;25.00;86.60
18281;DHT22;9266;51.132;17.062;2023-08-01T12:33:37;25.00;1.00
18281;DHT22;9266;51.132;17.062;2023-08-01T12:36:04;24.80;1.00
18281;DHT22;9266;51.132;17.062;2023-08-01T12:38:31;24.70;1.00
18281;DHT22;9266;51.132;17.062;2023-08-01T12:40:58;25.00;1.00
18281;DHT22;9266;51.132;17.062;2023-08-01T12:43:25;25.10;1.00
18281;DHT22;9266;51.132;17.062;2023-08-01T12:45:53;25.00;1.00
18281;DHT22;9266;51.132;17.062;2023-08-01T12:48:21;25.10;1.00
18281;DHT22;9266;51.132;17.062;2023-08-01T12:50:48;25.50;1.00
18281;DHT22;9266;51.132;17.062;2023-08-01T12:53:15;25.30;1.00
18281;DHT22;9266;51.132;17.062;2023-08-01T12:55:43;25.10;1.00
18281;DHT22;9266;51.132;17.062;2023-08-01T12:58:10;25.00;1.00
18281;DHT22;9266;51.132;17.062;2023-08-01T13:00:38;25.10;1.00
18281;DHT22;9266;51.132;17.062;2023-08-01T13:03:06;24.90;1.00
18281;DHT22;9266;51.132;17.062;2023-08-01T13:05:34;24.70;1.00
18281;DHT22;9266;51.132;17.062;2023-08-01T13:08:01;24.70;1.00
18281;DHT22;9266;51.132;17.062;2023-08-01T13:10:30;24.70;1.00
18281;DHT22;9266;51.132;17.062;2023-08-01T13:12:57;24.80;1.00
18281;DHT22;9266;51.132;17.062;2023-08-01T13:15:24;24.80;1.00
18281;DHT22;9266;51.132;17.062;2023-08-01T13:17:51;25.00;1.00
18281;DHT22;9266;51.132;17.062;2023-08-01T13:20:20;25.10;1.00
18281;DHT22;9266;51.132;17.062;2023-08-01T13:22:50;25.40;1.00
18281;DHT22;9266;51.132;17.062;2023-08-01T13:25:17;25.30;1.00
18281;DHT22;9266;51.132;17.062;2023-08-01T13:27:46;25.30;1.00
18281;DHT22;9266;51.132;17.062;2023-08-01T13:30:13;25.10;1.00
18281;DHT22;9266;51.132;17.062;2023-08-01T13:32:43;25.10;1.00
18281;DHT22;9266;51.132;17.062;2023-08-01T13:35:10;24.90;1.00
18281;DHT22;9266;51.132;17.062;2023-08-01T13:37:38;25.10;1.00
18281;DHT22;9266;51.132;17.062;2023-08-01T13:40:07;25.20;1.00
18281;DHT22;9266;51.132;17.062;2023-08-01T13:42:34;25.40;1.00
18281;DHT22;9266;51.132;17.062;2023-08-01T13:45:01;25.70;1.00
18281;DHT22;9266;51.132;17.062;2023-08-01T13:47:28;25.70;1.00
18281;DHT22;9266;51.132;17.062;2023-08-01T13:49:55;25.70;1.00
18281;DHT22;9266;51.132;17.062;2023-08-01T13:52:22;25.70;1.00
18281;DHT22;9266;51.132;17.062;2023-08-01T13:54:50;25.90;1.00
18281;DHT22;9266;51.132;17.062;2023-08-01T13:57:17;25.90;99.90
18281;DHT22;9266;51.132;17.062;2023-08-01T13:59:45;26.10;99.90
18281;DHT22;9266;51.132;17.062;2023-08-01T14:02:11;26.10;99.90
18281;DHT22;9266;51.132;17.062;2023-08-01T14:04:38;27.20;99.90
18281;DHT22;9266;51.132;17.062;2023-08-01T14:07:05;26.00;99.90
18281;DHT22;9266;51.132;17.062;2023-08-01T14:09:32;25.90;99.90
18281;DHT22;9266;51.132;17.062;2023-08-01T14:12:04;25.80;99.90
18281;DHT22;9266;51.132;17.062;2023-08-01T14:14:31;25.50;99.90
18281;DHT22;9266;51.132;17.062;2023-08-01T14:16:58;25.20;99.90
18281;DHT22;9266;51.132;17.062;2023-08-01T14:19:25;25.00;99.90
18281;DHT22;9266;51.132;17.062;2023-08-01T14:21:55;24.70;99.90
18281;DHT22;9266;51.132;17.062;2023-08-01T14:24:22;24.40;99.90
18281;DHT22;9266;51.132;17.062;2023-08-01T14:26:49;24.20;99.90
18281;DHT22;9266;51.132;17.062;2023-08-01T14:29:18;24.20;99.90
18281;DHT22;9266;51.132;17.062;2023-08-01T14:31:48;24.20;99.90
18281;DHT22;9266;51.132;17.062;2023-08-01T14:34:15;24.10;99.90
18281;DHT22;9266;51.132;17.062;2023-08-01T14:36:42;24.20;99.90
18281;DHT22;9266;51.132;17.062;2023-08-01T14:39:09;24.20;99.90
18281;DHT22;9266;51.132;17.062;2023-08-01T14:41:36;24.20;99.90
18281;DHT22;9266;51.132;17.062;2023-08-01T14:44:03;24.30;99.90
18281;DHT22;9266;51.132;17.062;2023-08-01T14:46:32;24.40;99.90
18281;DHT22;9266;51.132;17.062;2023-08-01T14:48:59;24.60;99.90
18281;DHT22;9266;51.132;17.062;2023-08-01T14:51:25;24.70;99.90
18281;DHT22;9266;51.132;17.062;2023-08-01T14:53:52;26.00;99.90
18281;DHT22;9266;51.132;17.062;2023-08-01T14:56:19;24.90;99.90
18281;DHT22;9266;51.132;17.062;2023-08-01T14:58:46;24.70;99.90
18281;DHT22;9266;51.132;17.062;2023-08-01T15:01:13;24.60;99.90
18281;DHT22;9266;51.132;17.062;2023-08-01T15:03:43;24.50;99.90
18281;DHT22;9266;51.132;17.062;2023-08-01T15:06:10;24.40;99.90
18281;DHT22;9266;51.132;17.062;2023-08-01T15:08:39;24.40;99.90
18281;DHT22;9266;51.132;17.062;2023-08-01T15:11:06;24.50;99.90
18281;DHT22;9266;51.132;17.062;2023-08-01T15:13:33;24.70;99.90
18281;DHT22;9266;51.132;17.062;2023-08-01T15:16:00;24.50;99.90
18281;DHT22;9266;51.132;17.062;2023-08-01T15:18:27;24.50;99.90
18281;DHT22;9266;51.132;17.062;2023-08-01T15:20:56;24.50;99.90
18281;DHT22;9266;51.132;17.062;2023-08-01T15:23:23;24.60;99.90
18281;DHT22;9266;51.132;17.062;2023-08-01T15:25:54;24.50;99.90
18281;DHT22;9266;51.132;17.062;2023-08-01T15:28:22;24.40;99.90
18281;DHT22;9266;51.132;17.062;2023-08-01T15:30:49;24.50;99.90
18281;DHT22;9266;51.132;17.062;2023-08-01T15:33:17;24.30;99.90
18281;DHT22;9266;51.132;17.062;2023-08-01T15:35:44;24.30;99.90
18281;DHT22;9266;51.132;17.062;2023-08-01T15:38:12;24.20;99.90
18281;DHT22;9266;51.132;17.062;2023-08-01T15:40:39;24.10;99.90